sensor_id;sensor_type;location;lat;lon;timestamp;pressure;altitude;pressure_sealevel;temperature;humidity
41624;BME280;27319;50.306;18.926;2022-07-05T00:00:01;98387.41;;;22.06;60.09
41624;BME280;27319;50.306;18.926;2022-07-05T00:04:02;98379.78;;;21.97;60.04
41624;BME280;27319;50.306;18.926;2022-07-05T00:08:03;98375.38;;;21.73;61.31
41624;BME280;27319;50.306;18.926;2022-07-05T00:12:03;98373.78;;;21.54;61.94
41624;BME280;27319;50.306;18.926;2022-07-05T00:16:04;98367.59;;;21.58;61.46
41624;BME280;27319;50.306;18.926;2022-07-05T00:20:05;98378.63;;;21.52;61.84
41624;BME280;27319;50.306;18.926;2022-07-05T00:24:05;98380.03;;;21.43;63.10
41624;BME280;27319;50.306;18.926;2022-07-05T00:28:06;98376.59;;;21.18;63.41
41624;BME280;27319;50.306;18.926;2022-07-05T00:32:06;98376.66;;;21.29;63.08
41624;BME280;27319;50.306;18.926;2022-07-05T00:36:07;98381.00;;;21.19;64.16
41624;BME280;27319;50.306;18.926;2022-07-05T00:40:07;98379.47;;;21.23;63.65
41624;BME280;27319;50.306;18.926;2022-07-05T00:44:15;98378.53;;;21.29;63.83
41624;BME280;27319;50.306;18.926;2022-07-05T00:48:15;98380.53;;;21.22;65.07
41624;BME280;27319;50.306;18.926;2022-07-05T00:52:16;98377.63;;;21.35;64.71
41624;BME280;27319;50.306;18.926;2022-07-05T00:56:18;98385.50;;;21.43;64.12
41624;BME280;27319;50.306;18.926;2022-07-05T01:00:17;98379.75;;;21.33;64.19
41624;BME280;27319;50.306;18.926;2022-07-05T01:04:17;98378.09;;;21.32;65.58
41624;BME280;27319;50.306;18.926;2022-07-05T01:08:18;98381.50;;;21.27;66.98
41624;BME280;27319;50.306;18.926;2022-07-05T01:12:19;98389.81;;;21.21;67.68
41624;BME280;27319;50.306;18.926;2022-07-05T01:16:19;98384.84;;;21.29;67.39
41624;BME280;27319;50.306;18.926;2022-07-05T01:20:20;98386.00;;;21.22;67.71
41624;BME280;27319;50.306;18.926;2022-07-05T01:24:20;98385.78;;;21.23;67.92
41624;BME280;27319;50.306;18.926;2022-07-05T01:28:21;98380.31;;;21.23;67.66
41624;BME280;27319;50.306;18.926;2022-07-05T01:32:22;98382.22;;;21.23;68.33
41624;BME280;27319;50.306;18.926;2022-07-05T01:36:22;98370.41;;;21.11;68.86
41624;BME280;27319;50.306;18.926;2022-07-05T01:40:23;98357.63;;;21.11;68.72
41624;BME280;27319;50.306;18.926;2022-07-05T01:43:58;98366.16;;;21.15;69.64
41624;BME280;27319;50.306;18.926;2022-07-05T01:47:59;98373.28;;;21.16;69.40
41624;BME280;27319;50.306;18.926;2022-07-05T01:52:07;98368.38;;;21.06;69.39
41624;BME280;27319;50.306;18.926;2022-07-05T01:56:03;98369.53;;;20.99;69.90
41624;BME280;27319;50.306;18.926;2022-07-05T02:00:04;98357.56;;;21.00;70.26
41624;BME280;27319;50.306;18.926;2022-07-05T02:04:06;98338.78;;;20.92;70.10
41624;BME280;27319;50.306;18.926;2022-07-05T02:08:08;98341.78;;;20.84;69.94
41624;BME280;27319;50.306;18.926;2022-07-05T02:12:09;98344.38;;;20.97;69.04
41624;BME280;27319;50.306;18.926;2022-07-05T02:16:09;98347.94;;;20.97;68.13
41624;BME280;27319;50.306;18.926;2022-07-05T02:20:10;98348.53;;;20.81;69.62
41624;BME280;27319;50.306;18.926;2022-07-05T02:24:11;98358.34;;;20.89;69.48
41624;BME280;27319;50.306;18.926;2022-07-05T02:28:11;98371.72;;;21.08;68.29
41624;BME280;27319;50.306;18.926;2022-07-05T02:32:12;98372.34;;;21.22;67.04
41624;BME280;27319;50.306;18.926;2022-07-05T02:36:13;98384.16;;;21.34;65.83
41624;BME280;27319;50.306;18.926;2022-07-05T02:40:13;98392.00;;;21.42;64.72
41624;BME280;27319;50.306;18.926;2022-07-05T02:43:57;98391.88;;;21.37;64.68
41624;BME280;27319;50.306;18.926;2022-07-05T02:47:58;98394.78;;;21.53;64.51
41624;BME280;27319;50.306;18.926;2022-07-05T02:51:58;98396.78;;;21.46;64.42
41624;BME280;27319;50.306;18.926;2022-07-05T02:55:59;98396.66;;;21.41;65.17
41624;BME280;27319;50.306;18.926;2022-07-05T02:59:59;98398.16;;;21.37;65.15
41624;BME280;27319;50.306;18.926;2022-07-05T03:03:40;98390.91;;;21.31;66.41
41624;BME280;27319;50.306;18.926;2022-07-05T03:07:01;98389.75;;;21.39;65.84
41624;BME280;27319;50.306;18.926;2022-07-05T03:11:01;98391.63;;;21.38;65.81
41624;BME280;27319;50.306;18.926;2022-07-05T03:15:02;98391.13;;;21.30;66.52
41624;BME280;27319;50.306;18.926;2022-07-05T03:19:02;98388.16;;;21.20;68.15
41624;BME280;27319;50.306;18.926;2022-07-05T03:23:03;98383.72;;;21.19;67.08
41624;BME280;27319;50.306;18.926;2022-07-05T03:27:04;98383.00;;;21.12;67.69
41624;BME280;27319;50.306;18.926;2022-07-05T03:31:04;98386.44;;;21.07;68.15
41624;BME280;27319;50.306;18.926;2022-07-05T03:35:05;98386.19;;;21.09;67.63
41624;BME280;27319;50.306;18.926;2022-07-05T03:39:05;98401.28;;;20.93;68.80
41624;BME280;27319;50.306;18.926;2022-07-05T03:43:06;98408.97;;;20.85;72.51
41624;BME280;27319;50.306;18.926;2022-07-05T03:47:07;98424.13;;;20.99;71.10
41624;BME280;27319;50.306;18.926;2022-07-05T03:51:07;98432.75;;;20.96;73.24
41624;BME280;27319;50.306;18.926;2022-07-05T03:55:08;98432.59;;;21.09;72.34
41624;BME280;27319;50.306;18.926;2022-07-05T03:59:08;98427.06;;;20.97;72.51
41624;BME280;27319;50.306;18.926;2022-07-05T04:03:09;98427.44;;;20.83;73.31
41624;BME280;27319;50.306;18.926;2022-07-05T04:07:09;98440.47;;;20.63;74.43
41624;BME280;27319;50.306;18.926;2022-07-05T04:11:10;98432.13;;;20.58;75.97
41624;BME280;27319;50.306;18.926;2022-07-05T04:15:11;98426.94;;;20.32;79.84
41624;BME280;27319;50.306;18.926;2022-07-05T04:19:11;98423.31;;;20.38;78.72
41624;BME280;27319;50.306;18.926;2022-07-05T04:23:12;98430.06;;;20.35;79.57
41624;BME280;27319;50.306;18.926;2022-07-05T04:27:12;98428.34;;;20.41;78.98
41624;BME280;27319;50.306;18.926;2022-07-05T04:31:13;98433.31;;;20.26;81.02
41624;BME280;27319;50.306;18.926;2022-07-05T04:35:14;98427.88;;;20.44;79.45
41624;BME280;27319;50.306;18.926;2022-07-05T04:39:14;98432.25;;;20.27;81.35
41624;BME280;27319;50.306;18.926;2022-07-05T04:43:14;98441.28;;;20.45;79.51
41624;BME280;27319;50.306;18.926;2022-07-05T04:47:15;98445.16;;;20.56;79.85
41624;BME280;27319;50.306;18.926;2022-07-05T04:51:16;98448.50;;;20.40;81.63
41624;BME280;27319;50.306;18.926;2022-07-05T04:55:16;98450.03;;;20.29;83.11
41624;BME280;27319;50.306;18.926;2022-07-05T04:59:17;98457.50;;;20.40;81.11
41624;BME280;27319;50.306;18.926;2022-07-05T05:03:17;98463.97;;;20.82;79.40
41624;BME280;27319;50.306;18.926;2022-07-05T05:07:18;98446.38;;;20.60;80.01
41624;BME280;27319;50.306;18.926;2022-07-05T05:11:18;98436.38;;;20.54;81.75
41624;BME280;27319;50.306;18.926;2022-07-05T05:15:19;98425.78;;;20.46;84.03
41624;BME280;27319;50.306;18.926;2022-07-05T05:19:19;98424.34;;;20.43;84.71
41624;BME280;27319;50.306;18.926;2022-07-05T05:23:21;98424.13;;;20.45;82.72
41624;BME280;27319;50.306;18.926;2022-07-05T05:27:21;98431.06;;;20.41;83.82
41624;BME280;27319;50.306;18.926;2022-07-05T05:31:21;98438.09;;;20.30;85.84
41624;BME280;27319;50.306;18.926;2022-07-05T05:35:22;98448.28;;;20.17;87.03
41624;BME280;27319;50.306;18.926;2022-07-05T05:39:23;98445.75;;;20.22;85.77
41624;BME280;27319;50.306;18.926;2022-07-05T05:43:23;98447.63;;;20.21;85.49
41624;BME280;27319;50.306;18.926;2022-07-05T05:47:24;98452.00;;;20.22;86.81
41624;BME280;27319;50.306;18.926;2022-07-05T05:51:24;98460.72;;;20.31;85.76
41624;BME280;27319;50.306;18.926;2022-07-05T05:55:26;98464.72;;;20.53;83.67
41624;BME280;27319;50.306;18.926;2022-07-05T05:59:25;98478.34;;;20.53;85.17
41624;BME280;27319;50.306;18.926;2022-07-05T06:03:26;98473.56;;;20.48;85.43
41624;BME280;27319;50.306;18.926;2022-07-05T06:07:27;98472.50;;;20.49;85.61
41624;BME280;27319;50.306;18.926;2022-07-05T06:11:27;98474.00;;;20.45;86.61
41624;BME280;27319;50.306;18.926;2022-07-05T06:15:28;98469.25;;;20.59;85.71
41624;BME280;27319;50.306;18.926;2022-07-05T06:19:28;98473.81;;;20.65;85.25
41624;BME280;27319;50.306;18.926;2022-07-05T06:23:29;98472.59;;;20.61;85.54
41624;BME280;27319;50.306;18.926;2022-07-05T06:27:30;98483.06;;;20.64;85.57
41624;BME280;27319;50.306;18.926;2022-07-05T06:31:30;98478.41;;;20.64;83.17
41624;BME280;27319;50.306;18.926;2022-07-05T06:35:31;98488.50;;;20.64;83.81
41624;BME280;27319;50.306;18.926;2022-07-05T06:39:31;98491.78;;;20.72;84.67
41624;BME280;27319;50.306;18.926;2022-07-05T06:43:32;98505.25;;;20.67;81.69
41624;BME280;27319;50.306;18.926;2022-07-05T06:47:33;98510.53;;;21.05;81.68
41624;BME280;27319;50.306;18.926;2022-07-05T06:51:33;98511.66;;;21.15;81.77
41624;BME280;27319;50.306;18.926;2022-07-05T06:55:15;98515.09;;;21.11;83.60
41624;BME280;27319;50.306;18.926;2022-07-05T06:59:16;98514.34;;;21.04;83.00
41624;BME280;27319;50.306;18.926;2022-07-05T07:03:16;98515.84;;;21.00;84.26
41624;BME280;27319;50.306;18.926;2022-07-05T07:07:17;98509.91;;;20.85;84.50
41624;BME280;27319;50.306;18.926;2022-07-05T07:11:16;98511.28;;;20.94;82.57
41624;BME280;27319;50.306;18.926;2022-07-05T07:15:12;98510.59;;;20.98;82.51
41624;BME280;27319;50.306;18.926;2022-07-05T07:18:13;98497.34;;;21.02;81.57
41624;BME280;27319;50.306;18.926;2022-07-05T07:21:34;98513.72;;;21.02;81.92
41624;BME280;27319;50.306;18.926;2022-07-05T07:25:34;98505.00;;;20.93;83.47
41624;BME280;27319;50.306;18.926;2022-07-05T07:29:35;98509.84;;;21.09;81.03
41624;BME280;27319;50.306;18.926;2022-07-05T07:33:35;98506.69;;;20.94;82.51
41624;BME280;27319;50.306;18.926;2022-07-05T07:37:36;98506.59;;;21.01;81.42
41624;BME280;27319;50.306;18.926;2022-07-05T07:41:17;98497.34;;;21.02;82.37
41624;BME280;27319;50.306;18.926;2022-07-05T07:44:37;98510.22;;;20.95;81.63
41624;BME280;27319;50.306;18.926;2022-07-05T07:48:38;98507.66;;;21.00;84.63
41624;BME280;27319;50.306;18.926;2022-07-05T07:52:38;98521.25;;;21.06;82.26
41624;BME280;27319;50.306;18.926;2022-07-05T07:56:39;98528.28;;;21.14;80.37
41624;BME280;27319;50.306;18.926;2022-07-05T08:00:40;98528.81;;;21.04;82.54
41624;BME280;27319;50.306;18.926;2022-07-05T08:04:37;98530.72;;;21.04;82.72
41624;BME280;27319;50.306;18.926;2022-07-05T08:08:38;98534.47;;;20.85;82.47
41624;BME280;27319;50.306;18.926;2022-07-05T08:12:38;98543.25;;;20.87;82.46
41624;BME280;27319;50.306;18.926;2022-07-05T08:16:39;98546.19;;;20.92;82.26
41624;BME280;27319;50.306;18.926;2022-07-05T08:20:39;98549.97;;;20.91;84.11
41624;BME280;27319;50.306;18.926;2022-07-05T08:24:39;98551.44;;;20.87;83.74
41624;BME280;27319;50.306;18.926;2022-07-05T08:28:39;98535.34;;;20.79;84.08
41624;BME280;27319;50.306;18.926;2022-07-05T08:32:40;98557.53;;;21.07;81.71
41624;BME280;27319;50.306;18.926;2022-07-05T08:36:41;98555.19;;;21.10;81.14
41624;BME280;27319;50.306;18.926;2022-07-05T08:40:39;98554.69;;;21.20;81.86
41624;BME280;27319;50.306;18.926;2022-07-05T08:44:04;98561.97;;;21.26;79.65
41624;BME280;27319;50.306;18.926;2022-07-05T08:48:05;98555.34;;;21.33;79.38
41624;BME280;27319;50.306;18.926;2022-07-05T08:52:05;98553.78;;;21.26;80.91
41624;BME280;27319;50.306;18.926;2022-07-05T08:56:09;98558.91;;;21.34;81.41
41624;BME280;27319;50.306;18.926;2022-07-05T09:00:06;98558.53;;;21.30;82.47
41624;BME280;27319;50.306;18.926;2022-07-05T09:04:07;98560.88;;;21.45;80.22
41624;BME280;27319;50.306;18.926;2022-07-05T09:08:09;98553.97;;;21.42;82.00
41624;BME280;27319;50.306;18.926;2022-07-05T09:12:08;98559.44;;;21.42;82.52
41624;BME280;27319;50.306;18.926;2022-07-05T09:16:08;98563.75;;;21.50;81.13
41624;BME280;27319;50.306;18.926;2022-07-05T09:20:26;98559.81;;;21.28;80.24
41624;BME280;27319;50.306;18.926;2022-07-05T09:24:25;98558.31;;;21.50;80.52
41624;BME280;27319;50.306;18.926;2022-07-05T09:28:26;98565.47;;;21.62;77.95
41624;BME280;27319;50.306;18.926;2022-07-05T09:32:26;98563.13;;;21.48;78.68
41624;BME280;27319;50.306;18.926;2022-07-05T09:36:28;98552.13;;;21.54;79.67
41624;BME280;27319;50.306;18.926;2022-07-05T09:40:31;98567.38;;;21.62;77.48
41624;BME280;27319;50.306;18.926;2022-07-05T09:43:59;98566.16;;;21.58;78.82
41624;BME280;27319;50.306;18.926;2022-07-05T09:48:00;98565.94;;;21.77;77.91
41624;BME280;27319;50.306;18.926;2022-07-05T09:52:07;98558.59;;;21.78;77.69
41624;BME280;27319;50.306;18.926;2022-07-05T09:56:20;98562.84;;;21.74;77.81
41624;BME280;27319;50.306;18.926;2022-07-05T10:00:21;98562.50;;;21.64;77.84
41624;BME280;27319;50.306;18.926;2022-07-05T10:04:21;98570.00;;;21.39;79.43
41624;BME280;27319;50.306;18.926;2022-07-05T10:08:22;98554.94;;;21.48;81.08
41624;BME280;27319;50.306;18.926;2022-07-05T10:12:22;98555.34;;;21.33;82.63
41624;BME280;27319;50.306;18.926;2022-07-05T10:16:23;98561.22;;;21.37;81.67
41624;BME280;27319;50.306;18.926;2022-07-05T10:20:45;98559.75;;;21.52;77.73
41624;BME280;27319;50.306;18.926;2022-07-05T10:24:42;98558.13;;;21.63;77.03
41624;BME280;27319;50.306;18.926;2022-07-05T10:28:46;98552.88;;;21.61;77.16
41624;BME280;27319;50.306;18.926;2022-07-05T10:32:45;98564.19;;;21.65;79.50
41624;BME280;27319;50.306;18.926;2022-07-05T10:36:46;98565.25;;;21.64;79.98
41624;BME280;27319;50.306;18.926;2022-07-05T10:40:42;98576.13;;;21.52;80.88
41624;BME280;27319;50.306;18.926;2022-07-05T10:44:04;98578.50;;;21.49;79.85
41624;BME280;27319;50.306;18.926;2022-07-05T10:52:00;98575.22;;;21.58;76.89
41624;BME280;27319;50.306;18.926;2022-07-05T11:07:13;98569.28;;;20.89;83.93
41624;BME280;27319;50.306;18.926;2022-07-05T11:15:12;98566.47;;;20.96;81.51
41624;BME280;27319;50.306;18.926;2022-07-05T11:19:11;98568.41;;;21.13;82.06
41624;BME280;27319;50.306;18.926;2022-07-05T11:23:26;98568.88;;;21.28;83.09
41624;BME280;27319;50.306;18.926;2022-07-05T11:27:30;98562.03;;;21.19;85.47
41624;BME280;27319;50.306;18.926;2022-07-05T11:31:39;98560.13;;;21.38;85.45
41624;BME280;27319;50.306;18.926;2022-07-05T11:35:37;98552.00;;;21.31;84.99
41624;BME280;27319;50.306;18.926;2022-07-05T11:39:38;98551.09;;;21.37;83.73
41624;BME280;27319;50.306;18.926;2022-07-05T11:43:44;98547.84;;;21.29;83.30
41624;BME280;27319;50.306;18.926;2022-07-05T11:47:45;98547.47;;;21.25;83.29
41624;BME280;27319;50.306;18.926;2022-07-05T11:52:01;98543.34;;;21.16;85.08
41624;BME280;27319;50.306;18.926;2022-07-05T11:55:58;98534.34;;;21.16;84.06
41624;BME280;27319;50.306;18.926;2022-07-05T11:59:59;98537.97;;;21.28;84.36
41624;BME280;27319;50.306;18.926;2022-07-05T12:04:00;98532.69;;;21.15;84.11
41624;BME280;27319;50.306;18.926;2022-07-05T12:08:00;98536.34;;;21.09;84.18
41624;BME280;27319;50.306;18.926;2022-07-05T12:12:01;98530.72;;;21.22;83.76
41624;BME280;27319;50.306;18.926;2022-07-05T12:16:00;98531.25;;;21.12;84.06
41624;BME280;27319;50.306;18.926;2022-07-05T12:20:01;98526.59;;;21.13;84.27
41624;BME280;27319;50.306;18.926;2022-07-05T12:24:01;98524.63;;;21.02;83.54
41624;BME280;27319;50.306;18.926;2022-07-05T12:28:02;98521.25;;;21.06;84.57
41624;BME280;27319;50.306;18.926;2022-07-05T12:32:04;98519.75;;;20.86;84.20
41624;BME280;27319;50.306;18.926;2022-07-05T12:36:04;98528.59;;;20.81;83.64
41624;BME280;27319;50.306;18.926;2022-07-05T12:40:08;98523.97;;;20.88;84.02
41624;BME280;27319;50.306;18.926;2022-07-05T12:44:09;98516.13;;;20.74;84.36
41624;BME280;27319;50.306;18.926;2022-07-05T12:48:10;98516.13;;;20.74;84.81
41624;BME280;27319;50.306;18.926;2022-07-05T12:52:10;98509.06;;;20.66;85.77
41624;BME280;27319;50.306;18.926;2022-07-05T12:56:11;98515.09;;;20.68;85.83
41624;BME280;27319;50.306;18.926;2022-07-05T13:00:25;98516.72;;;20.76;83.68
41624;BME280;27319;50.306;18.926;2022-07-05T13:04:26;98520.53;;;20.50;85.16
41624;BME280;27319;50.306;18.926;2022-07-05T13:08:27;98524.88;;;20.58;84.70
41624;BME280;27319;50.306;18.926;2022-07-05T13:12:30;98518.19;;;20.54;85.43
41624;BME280;27319;50.306;18.926;2022-07-05T13:16:31;98523.03;;;20.52;84.57
41624;BME280;27319;50.306;18.926;2022-07-05T13:20:14;98526.22;;;20.49;85.72
41624;BME280;27319;50.306;18.926;2022-07-05T13:23:15;98524.88;;;20.33;86.69
41624;BME280;27319;50.306;18.926;2022-07-05T13:26:16;98523.19;;;20.39;86.07
41624;BME280;27319;50.306;18.926;2022-07-05T13:29:37;98519.66;;;20.32;86.56
41624;BME280;27319;50.306;18.926;2022-07-05T13:33:38;98530.59;;;20.50;86.95
41624;BME280;27319;50.306;18.926;2022-07-05T13:37:38;98525.13;;;20.50;86.24
41624;BME280;27319;50.306;18.926;2022-07-05T13:41:19;98519.22;;;20.35;86.46
41624;BME280;27319;50.306;18.926;2022-07-05T13:44:20;98518.59;;;20.33;87.08
41624;BME280;27319;50.306;18.926;2022-07-05T13:47:21;98522.13;;;20.40;86.54
41624;BME280;27319;50.306;18.926;2022-07-05T13:50:22;98519.97;;;20.42;87.50
41624;BME280;27319;50.306;18.926;2022-07-05T13:53:32;98518.03;;;20.49;86.60
41624;BME280;27319;50.306;18.926;2022-07-05T13:56:33;98526.84;;;20.51;87.08
41624;BME280;27319;50.306;18.926;2022-07-05T13:59:36;98524.19;;;20.62;85.41
41624;BME280;27319;50.306;18.926;2022-07-05T14:02:56;98518.50;;;20.46;86.13
41624;BME280;27319;50.306;18.926;2022-07-05T14:06:33;98528.50;;;20.52;87.40
41624;BME280;27319;50.306;18.926;2022-07-05T14:09:35;98523.31;;;20.44;87.25
41624;BME280;27319;50.306;18.926;2022-07-05T14:12:36;98520.66;;;20.37;87.21
41624;BME280;27319;50.306;18.926;2022-07-05T14:15:37;98522.94;;;20.40;87.40
41624;BME280;27319;50.306;18.926;2022-07-05T14:18:38;98520.84;;;20.42;86.50
41624;BME280;27319;50.306;18.926;2022-07-05T14:22:38;98520.72;;;20.31;86.08
41624;BME280;27319;50.306;18.926;2022-07-05T14:26:39;98525.09;;;20.32;86.02
41624;BME280;27319;50.306;18.926;2022-07-05T14:30:41;98525.06;;;20.38;87.64
41624;BME280;27319;50.306;18.926;2022-07-05T14:34:40;98528.34;;;20.47;86.17
41624;BME280;27319;50.306;18.926;2022-07-05T14:38:41;98528.94;;;20.49;85.99
41624;BME280;27319;50.306;18.926;2022-07-05T14:42:21;98539.25;;;20.47;86.85
41624;BME280;27319;50.306;18.926;2022-07-05T14:45:22;98524.38;;;20.43;86.09
41624;BME280;27319;50.306;18.926;2022-07-05T14:48:23;98525.94;;;20.57;85.36
41624;BME280;27319;50.306;18.926;2022-07-05T14:51:44;98521.47;;;20.62;84.73
41624;BME280;27319;50.306;18.926;2022-07-05T14:55:45;98530.78;;;20.30;84.96
41624;BME280;27319;50.306;18.926;2022-07-05T14:59:45;98532.53;;;20.18;84.93
41624;BME280;27319;50.306;18.926;2022-07-05T15:03:26;98524.84;;;20.15;85.14
41624;BME280;27319;50.306;18.926;2022-07-05T15:06:27;98530.31;;;20.09;85.22
41624;BME280;27319;50.306;18.926;2022-07-05T15:09:28;98531.44;;;19.95;86.59
41624;BME280;27319;50.306;18.926;2022-07-05T15:12:28;98521.78;;;19.99;86.94
41624;BME280;27319;50.306;18.926;2022-07-05T15:15:29;98517.13;;;20.06;86.00
41624;BME280;27319;50.306;18.926;2022-07-05T15:18:30;98520.09;;;19.98;86.17
41624;BME280;27319;50.306;18.926;2022-07-05T15:21:31;98517.84;;;19.88;86.82
41624;BME280;27319;50.306;18.926;2022-07-05T15:24:32;98522.22;;;19.96;86.50
41624;BME280;27319;50.306;18.926;2022-07-05T15:27:33;98512.53;;;20.06;86.98
41624;BME280;27319;50.306;18.926;2022-07-05T15:30:34;98512.91;;;20.10;86.40
41624;BME280;27319;50.306;18.926;2022-07-05T15:33:35;98504.13;;;20.08;86.84
41624;BME280;27319;50.306;18.926;2022-07-05T15:36:36;98499.91;;;20.12;86.37
41624;BME280;27319;50.306;18.926;2022-07-05T15:39:37;98500.91;;;20.17;86.19
41624;BME280;27319;50.306;18.926;2022-07-05T15:42:38;98499.91;;;20.12;87.26
41624;BME280;27319;50.306;18.926;2022-07-05T15:45:39;98502.84;;;20.10;87.66
41624;BME280;27319;50.306;18.926;2022-07-05T15:48:40;98500.69;;;20.19;86.53
41624;BME280;27319;50.306;18.926;2022-07-05T15:51:41;98496.56;;;20.10;87.33
41624;BME280;27319;50.306;18.926;2022-07-05T15:54:42;98494.00;;;20.15;87.14
41624;BME280;27319;50.306;18.926;2022-07-05T15:57:43;98484.53;;;20.17;86.54
41624;BME280;27319;50.306;18.926;2022-07-05T16:00:44;98491.06;;;20.16;86.22
41624;BME280;27319;50.306;18.926;2022-07-05T16:04:05;98479.63;;;20.01;86.33
41624;BME280;27319;50.306;18.926;2022-07-05T16:08:09;98483.56;;;20.05;85.96
41624;BME280;27319;50.306;18.926;2022-07-05T16:12:09;98493.41;;;19.82;87.05
41624;BME280;27319;50.306;18.926;2022-07-05T16:16:10;98494.00;;;19.84;86.25
41624;BME280;27319;50.306;18.926;2022-07-05T16:20:10;98493.41;;;19.82;86.17
41624;BME280;27319;50.306;18.926;2022-07-05T16:24:11;98490.53;;;19.70;87.05
41624;BME280;27319;50.306;18.926;2022-07-05T16:28:11;98492.28;;;19.65;88.29
41624;BME280;27319;50.306;18.926;2022-07-05T16:32:12;98495.00;;;19.65;88.20
41624;BME280;27319;50.306;18.926;2022-07-05T16:36:17;98485.59;;;19.54;88.71
41624;BME280;27319;50.306;18.926;2022-07-05T16:40:16;98494.75;;;19.66;87.30
41624;BME280;27319;50.306;18.926;2022-07-05T16:43:43;98492.66;;;19.68;88.03
41624;BME280;27319;50.306;18.926;2022-07-05T16:46:44;98495.16;;;19.70;88.43
41624;BME280;27319;50.306;18.926;2022-07-05T16:49:45;98494.34;;;19.63;88.42
41624;BME280;27319;50.306;18.926;2022-07-05T16:52:46;98490.94;;;19.74;87.56
41624;BME280;27319;50.306;18.926;2022-07-05T16:55:47;98492.44;;;19.70;87.57
41624;BME280;27319;50.306;18.926;2022-07-05T16:58:53;98484.28;;;19.70;87.02
41624;BME280;27319;50.306;18.926;2022-07-05T17:01:54;98493.06;;;19.72;87.44
41624;BME280;27319;50.306;18.926;2022-07-05T17:04:55;98492.28;;;19.65;88.19
41624;BME280;27319;50.306;18.926;2022-07-05T17:07:56;98490.53;;;19.70;87.00
41624;BME280;27319;50.306;18.926;2022-07-05T17:10:57;98490.41;;;19.59;87.09
41624;BME280;27319;50.306;18.926;2022-07-05T17:13:58;98489.84;;;19.50;87.78
41624;BME280;27319;50.306;18.926;2022-07-05T17:16:59;98486.94;;;19.45;87.12
41624;BME280;27319;50.306;18.926;2022-07-05T17:20:00;98487.34;;;19.42;87.98
41624;BME280;27319;50.306;18.926;2022-07-05T17:23:00;98483.13;;;19.53;87.24
41624;BME280;27319;50.306;18.926;2022-07-05T17:26:03;98481.09;;;19.42;87.39
41624;BME280;27319;50.306;18.926;2022-07-05T17:29:05;98484.59;;;19.49;87.63
41624;BME280;27319;50.306;18.926;2022-07-05T17:32:06;98483.16;;;19.46;87.23
41624;BME280;27319;50.306;18.926;2022-07-05T17:35:07;98488.19;;;19.43;87.44
41624;BME280;27319;50.306;18.926;2022-07-05T17:38:08;98490.13;;;19.36;87.61
41624;BME280;27319;50.306;18.926;2022-07-05T17:41:10;98483.13;;;19.53;86.72
41624;BME280;27319;50.306;18.926;2022-07-05T17:44:15;98491.00;;;19.30;87.39
41624;BME280;27319;50.306;18.926;2022-07-05T17:47:16;98490.38;;;19.28;86.64
41624;BME280;27319;50.306;18.926;2022-07-05T17:50:17;98492.91;;;19.23;87.18
41624;BME280;27319;50.306;18.926;2022-07-05T17:53:18;98489.75;;;19.19;86.78
41624;BME280;27319;50.306;18.926;2022-07-05T17:56:22;98491.00;;;19.30;86.68
41624;BME280;27319;50.306;18.926;2022-07-05T17:59:32;98486.78;;;19.34;86.88
41624;BME280;27319;50.306;18.926;2022-07-05T18:02:33;98480.34;;;19.22;88.18
41624;BME280;27319;50.306;18.926;2022-07-05T18:05:34;98490.81;;;19.25;87.69
41624;BME280;27319;50.306;18.926;2022-07-05T18:08:35;98487.69;;;19.15;88.99
41624;BME280;27319;50.306;18.926;2022-07-05T18:11:36;98495.41;;;19.18;88.34
41624;BME280;27319;50.306;18.926;2022-07-05T18:14:37;98489.59;;;19.08;88.88
41624;BME280;27319;50.306;18.926;2022-07-05T18:17:38;98484.38;;;19.06;89.03
41624;BME280;27319;50.306;18.926;2022-07-05T18:20:40;98487.94;;;19.07;88.23
41624;BME280;27319;50.306;18.926;2022-07-05T18:23:41;98490.41;;;19.08;89.01
41624;BME280;27319;50.306;18.926;2022-07-05T18:26:43;98491.25;;;19.15;88.61
41624;BME280;27319;50.306;18.926;2022-07-05T18:29:44;98480.38;;;19.15;89.21
41624;BME280;27319;50.306;18.926;2022-07-05T18:32:45;98492.03;;;19.29;88.64
41624;BME280;27319;50.306;18.926;2022-07-05T18:35:46;98489.56;;;19.21;89.08
41624;BME280;27319;50.306;18.926;2022-07-05T18:38:47;98483.28;;;19.14;88.75
41624;BME280;27319;50.306;18.926;2022-07-05T18:41:48;98488.53;;;19.15;88.35
41624;BME280;27319;50.306;18.926;2022-07-05T18:44:49;98482.25;;;19.15;88.75
41624;BME280;27319;50.306;18.926;2022-07-05T18:47:50;98493.53;;;19.25;88.62
41624;BME280;27319;50.306;18.926;2022-07-05T18:50:51;98486.44;;;19.24;88.68
41624;BME280;27319;50.306;18.926;2022-07-05T18:53:52;98490.81;;;19.25;88.01
41624;BME280;27319;50.306;18.926;2022-07-05T18:56:52;98489.16;;;19.24;88.15
41624;BME280;27319;50.306;18.926;2022-07-05T18:59:53;98491.22;;;19.22;87.81
41624;BME280;27319;50.306;18.926;2022-07-05T19:03:14;98494.59;;;19.24;86.82
41624;BME280;27319;50.306;18.926;2022-07-05T19:07:15;98490.56;;;19.33;87.08
41624;BME280;27319;50.306;18.926;2022-07-05T19:11:14;98495.41;;;19.24;87.04
41624;BME280;27319;50.306;18.926;2022-07-05T19:15:13;98497.50;;;19.16;87.46
41624;BME280;27319;50.306;18.926;2022-07-05T19:19:14;98493.41;;;19.00;89.38
41624;BME280;27319;50.306;18.926;2022-07-05T19:23:14;98501.81;;;18.92;89.38
41624;BME280;27319;50.306;18.926;2022-07-05T19:27:15;98497.38;;;18.91;88.61
41624;BME280;27319;50.306;18.926;2022-07-05T19:31:15;98502.28;;;18.70;89.90
41624;BME280;27319;50.306;18.926;2022-07-05T19:35:16;98504.59;;;18.73;90.12
41624;BME280;27319;50.306;18.926;2022-07-05T19:39:16;98508.16;;;18.67;90.55
41624;BME280;27319;50.306;18.926;2022-07-05T19:42:57;98506.84;;;18.82;88.88
41624;BME280;27319;50.306;18.926;2022-07-05T19:45:59;98515.22;;;18.87;89.43